Time,TemperatureF,DewpointF,PressureIn,WindDirection,WindDirectionDegrees,WindSpeedMPH,WindSpeedGustMPH,Humidity,HourlyPrecipIn,Conditions,Clouds,dailyrainin,SoftwareType,DateUTC
2013-03-20 00:00:00,31.0,-99.9,-100.00,North,-999,-999.0,-999.0,-999,-99.99,,,0.02,,2013-03-20 07:00:00,
2013-03-20 00:53:00,31.0,-99.9,-100.00,North,-999,-999.0,-999.0,-999,-99.99,,,0.02,,2013-03-20 07:53:00,
2013-03-20 01:00:00,31.0,31.0,-100.00,SE,131,5.0,9.0,99,-99.99,,,0.03,,2013-03-20 08:00:00,
2013-03-20 02:00:00,30.0,30.0,-100.00,ESE,108,5.0,8.0,99,-99.99,,,0.03,,2013-03-20 09:00:00,
2013-03-20 05:00:00,31.0,31.0,-100.00,ESE,111,7.0,10.0,100,-99.99,,,0.03,,2013-03-20 12:00:00,
2013-03-20 06:00:00,32.0,32.0,-100.00,East,85,6.0,10.0,100,-99.99,,,0.03,,2013-03-20 13:00:00,
2013-03-20 07:00:00,33.0,33.0,-100.00,SE,137,7.0,10.0,100,-99.99,,,0.03,,2013-03-20 14:00:00,
2013-03-20 08:00:00,33.0,33.0,-100.00,NE,51,7.0,11.0,100,-99.99,,,0.04,,2013-03-20 15:00:00,
2013-03-20 09:00:00,33.0,33.0,-100.00,ESE,123,7.0,10.0,100,-99.99,,,0.04,,2013-03-20 16:00:00,
2013-03-20 11:00:00,33.0,33.0,-100.00,SE,127,6.0,10.0,100,-99.99,,,0.03,,2013-03-20 18:00:00,
2013-03-20 12:00:00,33.0,33.0,-100.00,SSE,165,6.0,10.0,100,-99.99,,,0.03,,2013-03-20 19:00:00,
2013-03-20 13:00:00,32.0,32.0,-100.00,SSE,167,9.0,14.0,100,-99.99,,,0.03,,2013-03-20 20:00:00,
2013-03-20 14:00:00,31.0,30.0,-100.00,SSE,167,11.0,17.0,99,-99.99,,,0.03,,2013-03-20 21:00:00,
2013-03-20 14:53:00,31.0,30.0,-100.00,SSE,167,11.0,17.0,99,-99.99,,,0.03,,2013-03-20 21:53:00,
2013-03-20 15:00:00,31.0,30.0,-100.00,SSW,203,11.0,17.0,99,-99.99,,,0.03,,2013-03-20 22:00:00,
2013-03-20 15:43:00,31.0,30.0,-100.00,SSW,203,11.0,17.0,99,-99.99,,,0.03,,2013-03-20 22:43:00,
2013-03-20 15:52:00,31.0,30.0,-100.00,SSW,203,11.0,17.0,99,-99.99,,,0.03,,2013-03-20 22:52:00,
2013-03-20 16:00:00,30.0,29.0,-100.00,South,171,13.0,21.0,98,-99.99,,,0.04,,2013-03-20 23:00:00,
2013-03-20 17:00:00,28.0,28.0,-100.00,ESE,117,12.0,18.0,98,-99.99,,,0.04,,2013-03-21 00:00:00,
2013-03-20 18:00:00,27.0,27.0,-100.00,SSE,165,14.0,19.0,98,-99.99,,,0.03,,2013-03-21 01:00:00,
2013-03-20 19:00:00,26.0,26.0,-100.00,South,181,16.0,22.0,98,-99.99,,,0.04,,2013-03-21 02:00:00,
2013-03-20 20:00:00,25.0,24.0,-100.00,SSE,167,20.0,26.0,97,-99.99,,,0.04,,2013-03-21 03:00:00,
2013-03-20 21:00:00,25.0,24.0,-100.00,SSE,161,20.0,28.0,94,-99.99,,,0.02,,2013-03-21 04:00:00,
2013-03-20 22:00:00,23.0,20.0,-100.00,SSE,153,19.0,25.0,88,-99.99,,,0.02,,2013-03-21 05:00:00,
2013-03-20 23:00:00,20.0,16.0,-100.00,SSE,150,19.0,28.0,82,-99.99,,,0.02,,2013-03-21 06:00:00,